Jesús González

Chefscout - Valencia
14 Okt 2027
Donnerstag
Verarbeitung

Persönlichkeit

Anpassungsfähigkeit (13) Ehrgeiz (1) Kontroverse (3) Loyalität (11) Druck (2) Professionalität (9) Fairness (15) Temperament (3)

Profil

Trainerstil Demokratisch
Lizenz Kontinentale C
Entschlossenheit 8
Menschenführung 14
Motivation 12
Disziplin 15
Arbeitszufriedenheit
100%
Ermüdung
0%
Rolle Chefscout
Gehalt 107.4K p/W
Vertrag 14.03.2028

Leistung

Verhalten Gut
Trainingseffektivität
52%
Spielerentwicklung
55%
Verletzungsprävention
75%
Taktische Umsetzung
40%

Letzte Ereignisse

Nahm an einer Scouting-Besprechung teil jetzt
Nahm an einer Scouting-Besprechung teil jetzt
Empfahl ein Transferziel jetzt
Empfahl ein Transferziel jetzt
Empfahl ein Transferziel jetzt
Empfahl ein Transferziel jetzt
Spieler begutachtet 7T her
Spieler begutachtet 7T her

Aktuell beobachtet

227
Spieler Verein Status Fähigkeit Vertrauen Beobachtet Zuletzt beobachtet Letzte Stimme
Nazareno Roselli Defensa y Justicia Aktiv 115 / 121 40% 5 12.10.2027 -
Camilo Rey Domenech Boca Juniors Aktiv 120 / 122 40% 4 12.10.2027 -
Ayden Heaven Luton Town Aktiv 146 / 146 40% 3 12.10.2027 -
David Valencia Alianza Petrolera Verhandlung 122 / 133 40% 7 10.10.2027 -
Axel Tape Bayer Leverkusen Aktiv 130 / 130 40% 2 10.10.2027 -
Lewis Miley Chelsea Aktiv 146 / 147 40% 1 10.10.2027 -
Sebastián Ramírez Jaguares Aktiv 109 / 109 40% 7 09.10.2027 -
Archie Gray Derby County Aktiv 151 / 153 40% 3 09.10.2027 -
Jens Hjertø-Dahl Hull City Aktiv 129 / 136 40% 2 05.10.2027 -
Héctor Fort Real Sociedad Aktiv 138 / 148 40% 1 05.10.2027 -
Hugo Rojas Instituto Aktiv 103 / 105 40% 1 04.10.2027 -
Luis Otávio Colorado Rapids Aktiv 113 / 122 40% 5 01.10.2027 -
Tobías Andrada Virtus Entella Aktiv 118 / 138 40% 1 01.10.2027 -
Vitor Reis Manchester City Aktiv 140 / 135 40% 1 29.09.2027 -
Elkin Rivero Atletico Nacional Aktiv 104 / 114 40% 1 29.09.2027 -
Kauã Moraes Cruzeiro Aktiv 131 / 124 40% 1 29.09.2027 -
Eliás Montiel Werder Bremen Aktiv 132 / 134 40% 2 26.09.2027 -
Tobias Moi Bodo/Glimt Aktiv 106 / 124 40% 2 26.09.2027 -
Samuel Martín Millonarios Aktiv 104 / 116 40% 1 26.09.2027 -
Hervin Goyes Deportivo Pasto Aktiv 104 / 110 40% 1 24.09.2027 -
Teo Rodríguez Pagano River Plate Aktiv 121 / 114 40% 1 24.09.2027 -
Josh King Chelsea Aktiv 140 / 143 40% 7 23.09.2027 -
Johan Manzambi Newcastle United Aktiv 147 / 149 40% 5 23.09.2027 -
Pablo Aguiar Independiente Aktiv 109 / 119 40% 1 23.09.2027 -
Juan Morán Godoy Cruz Aktiv 111 / 119 40% 2 19.09.2027 -
Thiago Helguera Braga Aktiv 125 / 133 40% 2 19.09.2027 -
Agustín Obregón River Plate Aktiv 112 / 113 40% 1 17.09.2027 -
Julián Bazán Philadelphia Union Aktiv 112 / 123 40% 1 15.09.2027 -
Juan Cruz Cortazzo Gimnasia La Plata Aktiv 109 / 108 40% 1 13.09.2027 -
Leny Yoro Manchester United Aktiv 148 / 159 40% 1 13.09.2027 -
Alejandro Almaraz Nueva Chicago Aktiv 110 / 123 40% 1 13.09.2027 -
Adam Aznou Everton Aktiv 128 / 131 40% 1 12.09.2027 -
Felipe Obradovich Ferro Carril Oeste Aktiv 108 / 124 40% 1 10.09.2027 -
Mbekezeli Mbokazi Chicago Fire Aktiv 128 / 127 40% 1 09.09.2027 -
Ulises Giménez River Plate Aktiv 108 / 124 40% 1 07.09.2027 -
Samuel Lucero Defensa y Justicia Aktiv 119 / 121 40% 7 05.07.2027 -
Dylan Lawlor Cardiff City Aktiv 119 / 126 40% 2 05.07.2027 -
Izan Merino Málaga Verloren 129 / 118 40% 4 30.06.2027 -
João Simões Sporting CP Aktiv 135 / 144 40% 2 30.06.2027 -
Daniel Kelly Oxford United Aktiv 111 / 120 40% 4 30.06.2027 -
Yusi Alavés Aktiv 131 / 142 40% 7 29.06.2027 -
Martim Cunha Porto Aktiv 107 / 112 40% 2 29.06.2027 -
Matías Gómez Granada Aktiv 118 / 121 40% 5 26.06.2027 -
Davide Bartesaghi AC Milan Aktiv 132 / 134 40% 2 26.06.2027 -
Warren Zaïre-Emery Paris Saint-Germain Aktiv 161 / 155 40% 4 25.06.2027 -
Christ Inao Oulaï Fiorentina Aktiv 140 / 133 40% 3 22.06.2027 -
José Pachuca Puebla Aktiv 112 / 126 40% 2 21.06.2027 -
Caleb Yirenkyi Coventry City Aktiv 134 / 147 40% 5 21.06.2027 -
Kevin Vazquez Cruz Azul Aktiv 141 / 136 40% 10 16.06.2027 -
Ernie Weaver AFC Wimbledon Aktiv 112 / 125 40% 3 15.06.2027 -
Cheveyo Tsawa Club Brugge Aktiv 117 / 135 40% 2 14.06.2027 -
Jorrel Hato Chelsea Aktiv 145 / 162 40% 4 03.06.2027 -
Germán Valera Elche Aktiv 138 / 132 40% 11 03.06.2027 -
Aune Heggebø West Bromwich Albion Aktiv 131 / 126 40% 1 03.06.2027 -
Davide Bartesaghi AC Milan Verloren 130 / 127 40% 1 03.06.2027 -
Exequiel Palacios Valencia Verhandlung 157 / 157 66% 1 01.06.2027 Befürworten
Carlos Álvarez Borussia Dortmund Verhandlung 136 / 139 66% 1 01.06.2027 Befürworten
Marc Guéhi Manchester City Verloren 166 / 166 68% 1 01.06.2027 -
Florian Wirtz Liverpool Bericht bereit 169 / 171 69% 1 01.06.2027 Befürworten
Lorenzo Palmisani Frosinone Aktiv 133 / 139 40% 5 30.05.2027 -
Tammy Abraham Aston Villa Aktiv 145 / 143 40% 11 30.05.2027 -
James Trafford Leeds United Aktiv 144 / 148 40% 5 30.05.2027 -
Giacomo Raspadori Atalanta Aktiv 148 / 144 40% 6 30.05.2027 -
Álex Padilla Athletic Bilbao Aktiv 135 / 138 40% 3 29.05.2027 -
Lucas Høgsberg RC Strasbourg Aktiv 137 / 135 40% 1 29.05.2027 -
Maroan Sannadi Athletic Bilbao Aktiv 136 / 129 40% 3 27.05.2027 -
Kai Havertz Arsenal Aktiv 162 / 152 40% 10 26.05.2027 -
Andrés Martín Racing Santander Aktiv 140 / 130 40% 12 26.05.2027 -
Ismaïla Sarr Crystal Palace Aktiv 147 / 156 40% 2 26.05.2027 -
João Pedro Chelsea Aktiv 152 / 150 40% 6 25.05.2027 -
Deniz Ertaş Konyaspor Aktiv 127 / 144 40% 5 25.05.2027 -
Walid Juma Al Shaab Aktiv 110 / 116 40% 1 25.05.2027 -
Diego Rossi Monterrey Aktiv 138 / 126 40% 6 24.05.2027 -
Ez Abde Girona Aktiv 156 / 155 40% 3 24.05.2027 -
Morgan Rogers Chelsea Aktiv 165 / 151 40% 3 23.05.2027 -
Oli McBurnie Hull City Aktiv 139 / 126 40% 4 21.05.2027 -
Alexander Sørloth Atlético Madrid Aktiv 149 / 151 40% 2 21.05.2027 -
Mikel Oyarzábal Real Sociedad Aktiv 165 / 154 40% 5 20.05.2027 -
Pascal Loretz Luzern Aktiv 134 / 139 40% 5 19.05.2027 -
Aitor Fraga Real Sociedad Aktiv 132 / 133 40% 1 19.05.2027 -
Lukáš Horníček Newcastle United Aktiv 149 / 157 40% 1 19.05.2027 -
Jon Morcillo Almería Aktiv 133 / 132 40% 1 19.05.2027 -
Gabriel Jesus Barcelona Aktiv 152 / 165 40% 7 16.05.2027 -
Khalis Merah Toulouse FC Aktiv 119 / 132 40% 1 16.05.2027 -
Hany Mukhtar Spezia Aktiv 139 / 140 40% 1 16.05.2027 -
Javi Puado Espanyol Aktiv 150 / 140 40% 4 15.05.2027 -
Gonçalo Ramos AC Milan Aktiv 154 / 163 40% 4 15.05.2027 -
Matheus Cunha Manchester United Aktiv 159 / 164 40% 6 13.05.2027 -
Radek Vítek Middlesbrough Aktiv 136 / 138 40% 6 13.05.2027 -
Ademola Lookman Atlético Madrid Aktiv 163 / 168 40% 5 13.05.2027 -
Dango Ouattara Brentford Aktiv 145 / 155 40% 6 09.05.2027 -
Viktor Gyökeres Arsenal Aktiv 161 / 162 40% 5 09.05.2027 -
Ferran Torres Paris Saint-Germain Aktiv 170 / 169 40% 9 09.05.2027 Beobachten
Mathieu Patouillet Stade Brestois Aktiv 118 / 127 40% 7 07.05.2027 -
Fedor Lapoukhov CSKA Sofia Aktiv 115 / 110 40% 2 07.05.2027 -
Federico Chiesa Liverpool Aktiv 159 / 146 40% 3 07.05.2027 -
Thiago Brentford Aktiv 150 / 143 40% 8 07.05.2027 -
Antonio Gomis Vizela Aktiv 125 / 134 40% 5 30.04.2027 -
Kostantis Tzolakis Hull City Aktiv 141 / 141 40% 3 24.04.2027 -
Fahad Hassan Al Shabab Aktiv 125 / 118 40% 3 23.04.2027 -
Cody Gakpo Liverpool Aktiv 157 / 160 40% 5 18.04.2027 -
Robin Roefs Sunderland Aktiv 142 / 140 40% 4 16.04.2027 -
Yussif Saidu Zaragoza Aktiv 125 / 113 40% 1 14.04.2027 -
Finn Jeltsch VfB Stuttgart Aktiv 134 / 142 40% 1 14.04.2027 -
Gonçalo Oliveira Benfica Aktiv 112 / 116 40% 1 14.04.2027 -
Abel Ruiz Girona Aktiv 144 / 135 40% 2 13.04.2027 -
João Teixeira Porto Aktiv 103 / 105 40% 1 12.04.2027 -
Salvador Blopá Casa Pia Aktiv 120 / 129 40% 1 12.04.2027 -
Noah Nartey Olympique Lyonnais Aktiv 136 / 139 40% 1 12.04.2027 -
Mohammed Kudus Tottenham Aktiv 156 / 152 40% 4 11.04.2027 -
Guillaume Restes Toulouse FC Aktiv 136 / 142 40% 4 10.04.2027 -
Marcus Rashford Manchester United Aktiv 155 / 156 40% 4 10.04.2027 -
Jorge De Frutos Rayo Vallecano Aktiv 143 / 139 40% 3 10.04.2027 -
Erick Reyes Toluca Aktiv 143 / 138 40% 4 09.04.2027 -
Diego Lainez Tigres Aktiv 130 / 122 40% 5 07.04.2027 -
Derensili Sanches Fernandes Huddersfield Town Aktiv 128 / 117 40% 2 07.04.2027 -
Edoardo Motta Lazio Aktiv 129 / 137 40% 1 05.04.2027 -
Omar El Hilali Espanyol Aktiv 147 / 158 40% 1 05.04.2027 -
William Saliba Arsenal Aktiv 174 / 170 40% 1 05.04.2027 -
Levi Colwill Chelsea Aktiv 162 / 163 40% 1 05.04.2027 -
Pablo Campos Levante Aktiv 127 / 122 40% 4 03.04.2027 -
Gabriel Martinelli Brighton Aktiv 166 / 164 40% 10 30.03.2027 -
Senne Lammens Manchester United Aktiv 156 / 146 40% 5 29.03.2027 -
Aitor Ruibal Betis Aktiv 141 / 132 40% 1 24.03.2027 -
Christos Mouzakitis Hull City Aktiv 132 / 147 40% 4 22.03.2027 -
Louis Leroux FC Nantes Aktiv 127 / 130 40% 1 22.03.2027 -
Jan Bürger Gillingham Aktiv 113 / 125 40% 1 22.03.2027 -
Petar Musa Adana Demirspor Aktiv 134 / 146 40% 1 22.03.2027 -
Nicolas Jackson Aston Villa Aktiv 148 / 140 40% 4 21.03.2027 -
Borja Mayoral Getafe Aktiv 147 / 128 40% 5 21.03.2027 -
Daniil Khudyakov Sturm Graz Aktiv 126 / 131 40% 7 20.03.2027 -
David Ozoh Derby County Aktiv 118 / 135 40% 2 19.03.2027 -
Razvan Balasa Crvena Zvezda Aktiv 142 / 146 40% 4 17.03.2027 -
Jonathan Dubasin Osasuna Aktiv 145 / 131 40% 2 10.03.2027 -
Bradley Barcola Liverpool Aktiv 165 / 152 40% 7 09.03.2027 -
Fotis Ioannidis Rio Ave Aktiv 144 / 142 40% 1 02.03.2027 -
Álex Baena Atlético Madrid Aktiv 168 / 149 40% 9 28.02.2027 -
Taty Castellanos West Ham United Aktiv 143 / 155 40% 2 25.02.2027 -
Georginio Rutter Brighton Aktiv 145 / 153 40% 1 18.02.2027 -
Youssef En-Nesyri Al-Ittihad Aktiv 138 / 128 40% 2 16.02.2027 -
Paulinho Palmeiras Aktiv 141 / 151 40% 3 12.02.2027 -
Adnan Courtois KV Oostende Aktiv 137 / 137 40% 2 12.02.2027 -
Hector Ramirez Newcastle United Aktiv 150 / 161 40% 1 12.02.2027 -
Oleksandr Saputin Poltava Aktiv 111 / 135 40% 2 29.01.2027 -
Alejandro Iturbe Elche Aktiv 116 / 129 40% 1 29.01.2027 -
Heorhii Yermakov Metalist Aktiv 109 / 121 40% 1 28.01.2027 -
Kyrylo Fesiun Shakhtar Aktiv 115 / 128 40% 1 18.01.2027 -
Éderson Feyenoord Aktiv 156 / 156 91% 1 01.01.2027 Befürworten
Raúl Rangel Sporting CP Verhandlung 132 / 132 66% 1 01.01.2027 Befürworten
Iliman N'Diaye Everton Aktiv 163 / 148 40% 5 31.12.2026 -
Kyriani Sabbe Club Brugge Aktiv 123 / 137 40% 2 29.12.2026 -
Joaquin Seys Club Brugge Aktiv 129 / 126 40% 1 29.12.2026 -
Nico O'Reilly Manchester City Aktiv 157 / 156 40% 5 28.12.2026 -
Ignacio Perruzzi San Lorenzo Aktiv 125 / 133 40% 3 26.12.2026 -
Victor Castillo Ceará Aktiv 130 / 139 40% 1 24.12.2026 -
Santiago Fernández Talleres Aktiv 118 / 134 40% 3 21.12.2026 -
Victor Froholdt Porto Aktiv 152 / 156 40% 1 18.12.2026 -
El Hadji Malick Diouf Brentford Aktiv 137 / 154 40% 1 17.12.2026 -
Matvey Kislyak CSKA Moscow Aktiv 134 / 123 40% 1 17.12.2026 -
Rayan Cherki Manchester City Aktiv 166 / 157 40% 6 15.12.2026 -
Ozziel Herrera Tigres Aktiv 128 / 134 40% 9 12.12.2026 -
Erick Sánchez OGC Nice Aktiv 144 / 141 40% 4 10.12.2026 -
Ramiro Sordo Santos Laguna Aktiv 128 / 113 40% 2 10.12.2026 -
Jack Hinshelwood Brighton Aktiv 138 / 150 40% 3 10.12.2026 -
James Dornelly Peterborough United Aktiv 102 / 105 40% 1 10.12.2026 -
Lucas Agazzi Defensor Sporting Aktiv 117 / 122 40% 3 08.12.2026 -
Alan Lescano Argentinos Juniors Aktiv 128 / 126 40% 8 07.12.2026 -
Tyler Fredricson Oldham Athletic Aktiv 102 / 102 40% 1 07.12.2026 -
Emi Rodriguez Leon Aktiv 118 / 117 40% 4 05.12.2026 -
Carlos Vicente Birmingham Aktiv 139 / 150 40% 4 04.12.2026 -
Tshepang Moremi Orlando Pirates Aktiv 113 / 113 40% 1 04.12.2026 -
Ezequiel Bullaude Santos Laguna Aktiv 121 / 130 40% 2 02.12.2026 -
Brian Rodríguez Club America Aktiv 128 / 128 40% 3 30.11.2026 -
Tyrhys Dolan Espanyol Aktiv 143 / 138 40% 1 30.11.2026 -
Martin Ødegaard Arsenal Aktiv 179 / 170 40% 6 27.11.2026 -
Rodrygo Real Madrid Aktiv 163 / 159 40% 2 26.11.2026 -
Pedri Barcelona Aktiv 178 / 190 40% 5 24.11.2026 -
Daniel Arcila Leon Aktiv 115 / 105 40% 1 24.11.2026 -
Johnny Cardoso Atlético Madrid Aktiv 159 / 149 40% 3 19.11.2026 -
Iker Benito Queretaro Aktiv 128 / 121 40% 3 18.11.2026 -
Johan Martínez Deportivo Cali Aktiv 125 / 133 40% 1 18.11.2026 -
Anthony Gordon Barcelona Aktiv 169 / 172 40% 1 17.11.2026 -
Oihan Sancet Athletic Bilbao Aktiv 161 / 170 40% 4 13.11.2026 -
Brian Gutiérrez Guadalajara Aktiv 128 / 129 40% 3 13.11.2026 -
Brahim Díaz Real Madrid Aktiv 156 / 136 40% 1 13.11.2026 -
Noah Sadiki Sunderland Aktiv 145 / 150 40% 3 12.11.2026 -
Tomás O'Connor Gimnasia y Esgrima Aktiv 122 / 120 40% 1 12.11.2026 -
Javier Mena Portimonense Aktiv 117 / 129 40% 4 10.11.2026 -
Nicolás Castro Toluca Aktiv 123 / 139 40% 1 05.11.2026 -
Joaquín Gho Argentinos Juniors Aktiv 127 / 121 40% 1 02.11.2026 -
Emerson Batalla Atletico Bucaramanga Aktiv 123 / 123 40% 2 30.10.2026 -
Declan Rice Arsenal Aktiv 184 / 177 40% 3 29.10.2026 -
Marcel Ruiz RC Lens Aktiv 143 / 152 40% 2 27.10.2026 -
Alexander Díaz Deportivo Riestra Aktiv 119 / 108 40% 1 27.10.2026 -
Dylan Borrero America de Cali Aktiv 114 / 121 40% 1 27.10.2026 -
Santiago Montiel Independiente Aktiv 126 / 119 40% 2 23.10.2026 -
Carlos Palacios Boca Juniors Aktiv 129 / 127 40% 2 23.10.2026 -
Matías Fernández Independiente Rivadavia Aktiv 123 / 124 40% 1 22.10.2026 -
Matko Miljevic Racing Club Aktiv 130 / 130 40% 1 22.10.2026 -
Enzo Fernández Manchester City Aktiv 166 / 174 40% 3 20.10.2026 -
Axel Frugone Defensor Sporting Aktiv 115 / 109 40% 2 20.10.2026 -
Alexis González Lanús Aktiv 96 / 110 40% 1 20.10.2026 -
Pablo Barrios Atlético Madrid Aktiv 154 / 152 40% 1 16.10.2026 -
Tiago Palacios Estudiantes Aktiv 127 / 122 40% 1 12.10.2026 -
Alexis Cuello San Lorenzo Aktiv 125 / 121 40% 4 11.10.2026 -
Juan Pablo Domínguez Leon Aktiv 127 / 116 40% 1 11.10.2026 -
Nahuel Herrera Penarol Aktiv 120 / 116 40% 3 07.10.2026 -
Mateo Mendoza Godoy Cruz Aktiv 119 / 138 40% 3 06.10.2026 -
Yuber Quiñónes Deportivo Pereira Aktiv 118 / 111 40% 1 01.10.2026 -
Efraín Álvarez Guadalajara Aktiv 131 / 131 40% 2 28.09.2026 -
Moisés Caicedo Chelsea Aktiv 173 / 180 40% 1 28.09.2026 -
Rémi Lemoine Chamois Niortais Aktiv 160 / 161 40% 1 25.09.2026 -
Vicente Poggi Godoy Cruz Aktiv 124 / 114 40% 1 25.09.2026 -
Martín Campos Ferro Carril Oeste Aktiv 116 / 124 40% 1 22.09.2026 -
Pedro Vite Pumas UNAM Aktiv 121 / 124 40% 1 18.09.2026 -
Cole Palmer Chelsea Aktiv 174 / 183 40% 1 16.09.2026 -
Aníbal Moreno River Plate Aktiv 131 / 140 40% 2 15.09.2026 -
Martín Ortega Newell's Old Boys Aktiv 120 / 131 40% 1 14.09.2026 -
Kevin Zenón Boca Juniors Aktiv 129 / 114 40% 1 13.09.2026 -
Aarón Molinas Defensa y Justicia Aktiv 129 / 125 40% 1 13.09.2026 -
Lucas Carrizo Plaza Colonia Aktiv 114 / 111 40% 1 13.09.2026 -
Eric Meza Estudiantes Aktiv 129 / 135 40% 1 12.09.2026 -
Rodrigo González Mitre Aktiv 115 / 117 40% 1 08.09.2026 -
Nazareno Kihm Ferro Carril Oeste Aktiv 106 / 108 40% 1 02.09.2026 -
Ignacio Ovando Rosario Central Aktiv 97 / 123 40% 1 02.09.2026 -
Antoine Semenyo Manchester City Aktiv 153 / 148 40% 1 01.08.2026 -
Dani Olmo Barcelona Aktiv 155 / 156 40% 1 01.08.2026 -